createdAt,value
2018-07-25T00:01:42.579Z,25.06
2018-07-25T00:04:46.231Z,25.13
2018-07-25T00:07:49.869Z,25.06
2018-07-25T00:10:55.476Z,25.06
2018-07-25T00:13:59.285Z,24.99
2018-07-25T00:17:03.029Z,25.16
2018-07-25T00:20:06.706Z,25.09
2018-07-25T00:23:10.276Z,25.07
2018-07-25T00:26:13.896Z,24.95
2018-07-25T00:29:17.525Z,24.89
2018-07-25T00:32:21.210Z,24.89
2018-07-25T00:35:24.836Z,24.84
2018-07-25T00:38:28.535Z,24.73
2018-07-25T00:41:32.120Z,24.71
2018-07-25T00:44:35.865Z,24.62
2018-07-25T00:47:39.609Z,24.60
2018-07-25T00:50:43.216Z,24.58
2018-07-25T00:53:46.870Z,24.53
2018-07-25T00:56:50.654Z,24.49
2018-07-25T00:59:54.271Z,24.57
2018-07-25T01:02:57.990Z,24.54
2018-07-25T01:06:01.623Z,24.65
2018-07-25T01:09:07.760Z,24.65
2018-07-25T01:12:11.376Z,24.65
2018-07-25T01:15:15.047Z,24.62
2018-07-25T01:18:18.611Z,24.56
2018-07-25T01:21:22.207Z,24.58
2018-07-25T01:24:26.061Z,24.58
2018-07-25T01:27:29.622Z,24.59
2018-07-25T01:30:33.307Z,24.64
2018-07-25T01:33:36.847Z,24.47
2018-07-25T01:36:40.456Z,24.16
2018-07-25T01:39:44.068Z,23.95
2018-07-25T01:42:47.681Z,23.60
2018-07-25T01:45:51.357Z,22.96
2018-07-25T01:48:54.964Z,22.75
2018-07-25T01:51:58.556Z,22.68
2018-07-25T01:55:02.260Z,22.50
2018-07-25T01:58:06.151Z,22.50
2018-07-25T02:01:09.781Z,22.38
2018-07-25T02:04:13.499Z,22.29
2018-07-25T02:07:17.156Z,22.23
2018-07-25T02:10:20.772Z,22.23
2018-07-25T02:13:24.341Z,22.31
2018-07-25T02:16:27.886Z,22.50
2018-07-25T02:19:31.671Z,22.92
2018-07-25T02:22:35.323Z,23.13
2018-07-25T02:25:39.915Z,23.34
2018-07-25T02:28:43.475Z,23.55
2018-07-25T02:31:47.131Z,23.75
2018-07-25T02:34:50.752Z,23.86
2018-07-25T02:37:54.352Z,23.98
2018-07-25T02:40:58.171Z,24.00
2018-07-25T02:44:01.753Z,23.85
2018-07-25T02:47:05.388Z,23.59
2018-07-25T02:50:09.080Z,23.31
2018-07-25T02:53:12.974Z,23.12
2018-07-25T02:56:16.687Z,23.18
2018-07-25T02:59:20.452Z,23.34
2018-07-25T03:02:24.065Z,23.45
2018-07-25T03:05:27.747Z,23.53
2018-07-25T03:08:31.433Z,23.68
2018-07-25T03:11:35.076Z,23.16
2018-07-25T03:14:38.798Z,22.58
2018-07-25T03:17:42.466Z,22.11
2018-07-25T03:20:46.138Z,22.13
2018-07-25T03:23:49.787Z,21.98
2018-07-25T03:26:53.441Z,21.93
2018-07-25T03:29:57.176Z,21.97
2018-07-25T03:33:00.698Z,21.99
2018-07-25T03:36:04.385Z,21.95
2018-07-25T03:39:08.275Z,21.82
2018-07-25T03:42:11.919Z,21.88
2018-07-25T03:45:15.534Z,21.87
2018-07-25T03:48:19.205Z,21.81
2018-07-25T03:51:22.772Z,21.83
2018-07-25T03:54:26.435Z,21.88
2018-07-25T03:57:30.031Z,21.97
2018-07-25T04:00:33.676Z,22.26
2018-07-25T04:03:37.319Z,22.61
2018-07-25T04:06:40.914Z,23.02
2018-07-25T04:09:44.892Z,23.01
2018-07-25T04:12:48.621Z,23.32
2018-07-25T04:15:52.370Z,23.90
2018-07-25T04:18:55.993Z,24.48
2018-07-25T04:21:59.562Z,25.30
2018-07-25T04:25:03.446Z,26.06
2018-07-25T04:28:07.263Z,26.81
2018-07-25T04:31:10.906Z,27.23
2018-07-25T04:34:14.668Z,27.72
2018-07-25T04:37:18.216Z,27.09
2018-07-25T04:40:21.782Z,26.47
2018-07-25T04:43:25.407Z,26.32
2018-07-25T04:46:29.109Z,26.18
2018-07-25T04:49:32.627Z,26.23
2018-07-25T04:52:36.642Z,26.40
2018-07-25T04:55:40.293Z,26.46
2018-07-25T04:58:43.813Z,26.37
2018-07-25T05:01:47.514Z,26.38
2018-07-25T05:04:51.090Z,25.94
2018-07-25T05:07:54.704Z,26.02
2018-07-25T05:10:58.399Z,25.84
2018-07-25T05:14:01.984Z,26.30
2018-07-25T05:17:05.776Z,26.94
2018-07-25T05:20:10.427Z,26.89
2018-07-25T05:23:14.431Z,26.58
2018-07-25T05:26:18.003Z,25.59
2018-07-25T05:29:21.703Z,25.06
2018-07-25T05:32:25.549Z,25.21
2018-07-25T05:35:29.398Z,25.39
2018-07-25T05:38:33.025Z,25.18
2018-07-25T05:41:36.720Z,24.94
2018-07-25T05:44:40.344Z,24.72
2018-07-25T05:47:43.917Z,24.90
2018-07-25T05:50:47.439Z,25.24
2018-07-25T05:53:51.084Z,24.85
2018-07-25T05:56:54.699Z,25.42
2018-07-25T05:59:58.461Z,25.51
2018-07-25T06:03:02.322Z,27.60
2018-07-25T06:06:06.151Z,28.88
2018-07-25T06:09:10.625Z,28.62
2018-07-25T06:12:14.298Z,27.79
2018-07-25T06:15:17.974Z,27.85
2018-07-25T06:18:21.754Z,28.48
2018-07-25T06:21:25.381Z,28.35
2018-07-25T06:24:29.079Z,28.18
2018-07-25T06:27:32.816Z,27.88
2018-07-25T06:30:36.554Z,28.91
2018-07-25T06:33:40.450Z,29.32
2018-07-25T06:36:44.042Z,29.83
2018-07-25T06:39:47.608Z,30.08
2018-07-25T06:42:51.248Z,31.06
2018-07-25T06:45:55.004Z,31.63
2018-07-25T06:48:58.561Z,32.13
2018-07-25T06:52:02.236Z,32.60
2018-07-25T06:55:05.971Z,33.03
2018-07-25T06:58:09.651Z,33.40
2018-07-25T07:01:13.225Z,33.51
2018-07-25T07:04:17.080Z,32.62
2018-07-25T07:07:20.739Z,31.40
2018-07-25T07:10:24.510Z,31.19
2018-07-25T07:13:28.094Z,31.42
2018-07-25T07:16:31.679Z,31.45
2018-07-25T07:19:35.563Z,31.54
2018-07-25T07:22:39.302Z,30.93
2018-07-25T07:25:43.052Z,31.21
2018-07-25T07:28:46.661Z,31.46
2018-07-25T07:31:50.296Z,31.55
2018-07-25T07:34:53.999Z,31.55
2018-07-25T07:37:57.789Z,31.72
2018-07-25T07:41:01.615Z,31.75
2018-07-25T07:44:05.695Z,31.76
2018-07-25T07:47:09.284Z,31.61
2018-07-25T07:50:12.969Z,31.68
2018-07-25T07:53:16.606Z,32.00
2018-07-25T07:56:20.436Z,31.79
2018-07-25T07:59:24.258Z,32.01
2018-07-25T08:02:27.853Z,31.78
2018-07-25T08:05:31.515Z,32.19
2018-07-25T08:08:35.308Z,32.22
2018-07-25T08:11:39.016Z,31.84
2018-07-25T08:14:42.714Z,31.94
2018-07-25T08:17:46.496Z,31.88
2018-07-25T08:20:50.110Z,32.23
2018-07-25T08:23:53.810Z,32.43
2018-07-25T08:26:57.446Z,32.49
2018-07-25T08:30:01.193Z,31.92
2018-07-25T08:33:04.892Z,32.23
2018-07-25T08:36:08.533Z,32.39
2018-07-25T08:39:12.137Z,32.10
2018-07-25T08:42:15.972Z,32.34
2018-07-25T08:45:19.661Z,32.68
2018-07-25T08:48:23.462Z,32.74
2018-07-25T08:51:27.110Z,32.86
2018-07-25T08:54:30.734Z,32.97
2018-07-25T08:57:34.283Z,33.32
2018-07-25T09:00:38.078Z,33.34
2018-07-25T09:03:41.746Z,33.33
2018-07-25T09:06:45.336Z,33.26
2018-07-25T09:09:49.078Z,33.20
2018-07-25T09:12:52.781Z,32.77
2018-07-25T09:15:56.456Z,32.98
2018-07-25T09:19:00.290Z,33.22
2018-07-25T09:22:04.050Z,33.01
2018-07-25T09:25:08.062Z,33.14
2018-07-25T09:28:11.630Z,33.03
2018-07-25T09:31:15.282Z,32.75
2018-07-25T09:34:19.050Z,32.88
2018-07-25T09:37:22.580Z,33.12
2018-07-25T09:40:26.447Z,32.78
2018-07-25T09:43:30.154Z,32.98
2018-07-25T09:46:33.972Z,33.21
2018-07-25T09:49:37.658Z,33.30
2018-07-25T09:52:41.296Z,33.26
2018-07-25T09:55:44.998Z,33.51
2018-07-25T09:58:48.742Z,33.50
2018-07-25T10:01:52.388Z,33.26
2018-07-25T10:04:56.173Z,33.12
2018-07-25T10:07:59.902Z,32.94
2018-07-25T10:11:03.652Z,33.13
2018-07-25T10:14:07.516Z,33.53
2018-07-25T10:17:11.331Z,33.58
2018-07-25T10:20:14.969Z,33.56
2018-07-25T10:23:18.752Z,33.66
2018-07-25T10:26:22.409Z,33.83
2018-07-25T10:29:26.234Z,34.02
2018-07-25T10:32:29.912Z,33.90
2018-07-25T10:35:33.664Z,33.97
2018-07-25T10:38:37.336Z,34.08
2018-07-25T10:41:40.935Z,34.21
2018-07-25T10:44:44.576Z,33.74
2018-07-25T10:47:48.289Z,33.71
2018-07-25T10:50:51.927Z,33.17
2018-07-25T10:53:55.729Z,32.85
2018-07-25T10:56:59.458Z,33.07
2018-07-25T11:00:03.777Z,32.89
2018-07-25T11:03:07.774Z,32.82
2018-07-25T11:06:11.448Z,33.44
2018-07-25T11:09:15.177Z,33.77
2018-07-25T11:12:18.957Z,34.24
2018-07-25T11:15:22.667Z,34.50
2018-07-25T11:18:26.433Z,34.38
2018-07-25T11:21:30.204Z,34.45
2018-07-25T11:24:34.008Z,34.14
2018-07-25T11:27:37.654Z,34.17
2018-07-25T11:30:41.387Z,33.93
2018-07-25T11:33:45.198Z,33.50
2018-07-25T11:36:48.911Z,33.35
2018-07-25T11:39:52.497Z,33.11
2018-07-25T11:42:56.126Z,32.91
2018-07-25T11:45:59.804Z,32.93
2018-07-25T11:49:03.487Z,33.04
2018-07-25T11:52:08.062Z,33.11
2018-07-25T11:55:11.728Z,33.07
2018-07-25T11:58:15.463Z,33.19
2018-07-25T12:01:19.646Z,33.51
2018-07-25T12:04:23.272Z,33.56
2018-07-25T12:07:26.935Z,33.81
2018-07-25T12:10:30.711Z,34.18
2018-07-25T12:13:34.434Z,34.53
2018-07-25T12:16:38.026Z,34.74
2018-07-25T12:19:41.847Z,34.60
2018-07-25T12:22:45.432Z,34.24
2018-07-25T12:25:49.187Z,34.02
2018-07-25T12:28:52.878Z,34.07
2018-07-25T12:31:56.577Z,33.83
2018-07-25T12:35:00.200Z,33.73
2018-07-25T12:38:03.967Z,33.65
2018-07-25T12:41:07.853Z,33.44
2018-07-25T12:44:11.610Z,33.36
2018-07-25T12:47:15.209Z,33.27
2018-07-25T12:50:18.914Z,33.21
2018-07-25T12:53:22.668Z,33.32
2018-07-25T12:56:26.387Z,33.40
2018-07-25T12:59:30.454Z,33.08
2018-07-25T13:02:34.128Z,33.01
2018-07-25T13:05:37.743Z,33.37
2018-07-25T13:08:41.403Z,34.31
2018-07-25T13:11:45.132Z,34.63
2018-07-25T13:14:49.024Z,34.96
2018-07-25T13:17:52.670Z,35.45
2018-07-25T13:20:56.539Z,35.16
2018-07-25T13:24:00.279Z,35.07
2018-07-25T13:27:03.938Z,35.27
2018-07-25T13:30:07.974Z,35.31
2018-07-25T13:33:11.638Z,34.91
2018-07-25T13:36:15.357Z,34.44
2018-07-25T13:39:19.009Z,34.49
2018-07-25T13:42:22.708Z,34.65
2018-07-25T13:45:26.467Z,34.51
2018-07-25T13:48:30.510Z,34.21
2018-07-25T13:51:34.229Z,34.35
2018-07-25T13:54:38.085Z,34.96
2018-07-25T13:57:41.720Z,35.34
2018-07-25T14:00:45.454Z,35.19
2018-07-25T14:03:49.767Z,35.15
2018-07-25T14:06:53.483Z,35.01
2018-07-25T14:09:57.273Z,34.70
2018-07-25T14:13:01.015Z,34.63
2018-07-25T14:16:05.698Z,34.98
2018-07-25T14:19:09.673Z,35.28
2018-07-25T14:22:13.548Z,35.31
2018-07-25T14:25:17.301Z,35.07
2018-07-25T14:28:20.954Z,35.43
2018-07-25T14:31:24.785Z,35.49
2018-07-25T14:34:28.385Z,35.49
2018-07-25T14:37:32.303Z,35.48
2018-07-25T14:40:36.041Z,35.26
2018-07-25T14:43:39.696Z,35.03
2018-07-25T14:46:43.455Z,34.83
2018-07-25T14:49:47.239Z,35.04
2018-07-25T14:52:50.989Z,35.23
2018-07-25T14:55:54.720Z,34.86
2018-07-25T14:58:58.628Z,34.98
2018-07-25T15:02:02.420Z,35.20
2018-07-25T15:05:06.532Z,34.86
2018-07-25T15:08:10.302Z,35.13
2018-07-25T15:11:14.176Z,35.01
2018-07-25T15:14:18.043Z,34.42
2018-07-25T15:17:21.822Z,34.10
2018-07-25T15:20:25.712Z,33.97
2018-07-25T15:24:03.071Z,33.30
2018-07-25T15:27:06.827Z,33.17
2018-07-25T15:30:11.466Z,33.20
2018-07-25T15:33:15.135Z,32.99
2018-07-25T15:36:51.703Z,33.31
2018-07-25T15:39:55.445Z,33.47
2018-07-25T15:42:59.218Z,33.87
2018-07-25T15:46:02.979Z,34.21
2018-07-25T15:49:07.144Z,34.53
2018-07-25T15:52:11.020Z,34.63
2018-07-25T15:55:14.881Z,34.42
2018-07-25T15:58:18.635Z,34.37
2018-07-25T16:01:22.410Z,34.17
2018-07-25T16:04:26.116Z,34.20
2018-07-25T16:07:29.886Z,34.02
2018-07-25T16:10:33.751Z,33.68
2018-07-25T16:13:37.501Z,33.90
2018-07-25T16:16:41.246Z,33.79
2018-07-25T16:19:44.900Z,33.65
2018-07-25T16:22:48.579Z,33.37
2018-07-25T16:25:52.331Z,32.99
2018-07-25T16:28:56.237Z,32.71
2018-07-25T16:32:00.132Z,32.61
2018-07-25T16:35:03.956Z,32.53
2018-07-25T16:38:07.720Z,32.52
2018-07-25T16:41:11.357Z,32.39
2018-07-25T16:44:15.161Z,32.33
2018-07-25T16:47:18.837Z,32.28
2018-07-25T16:50:22.646Z,32.16
2018-07-25T16:53:26.457Z,31.93
2018-07-25T16:56:30.343Z,31.60
2018-07-25T16:59:33.966Z,31.08
2018-07-25T17:02:37.756Z,30.83
2018-07-25T17:05:41.422Z,30.90
2018-07-25T17:08:45.312Z,30.83
2018-07-25T17:11:49.094Z,30.65
2018-07-25T17:14:52.906Z,30.60
2018-07-25T17:17:56.680Z,30.55
2018-07-25T17:21:00.383Z,30.39
2018-07-25T17:24:04.262Z,30.22
2018-07-25T17:27:07.885Z,30.26
2018-07-25T17:30:11.881Z,30.18
2018-07-25T17:33:16.107Z,30.08
2018-07-25T17:36:19.836Z,29.86
2018-07-25T17:39:23.447Z,29.85
2018-07-25T17:42:27.202Z,29.79
2018-07-25T17:45:30.921Z,29.63
2018-07-25T17:48:34.710Z,29.66
2018-07-25T17:51:39.615Z,29.62
2018-07-25T17:54:44.253Z,29.47
2018-07-25T17:57:47.932Z,29.42
2018-07-25T18:00:51.774Z,29.34
2018-07-25T18:03:55.630Z,29.19
2018-07-25T18:06:59.588Z,29.00
2018-07-25T18:10:03.482Z,28.83
2018-07-25T18:13:12.352Z,28.54
2018-07-25T18:16:17.206Z,28.30
2018-07-25T18:19:22.129Z,28.31
2018-07-25T18:22:26.093Z,28.01
2018-07-25T18:25:30.132Z,28.13
2018-07-25T18:28:33.748Z,28.05
2018-07-25T18:31:37.632Z,28.01
2018-07-25T18:34:41.583Z,27.99
2018-07-25T18:37:45.398Z,27.94
2018-07-25T18:40:49.125Z,27.81
2018-07-25T18:43:53.062Z,27.66
2018-07-25T18:46:57.276Z,27.67
2018-07-25T18:50:01.342Z,27.58
2018-07-25T18:53:05.658Z,27.29
2018-07-25T18:56:09.779Z,27.26
2018-07-25T18:59:13.588Z,27.21
2018-07-25T19:02:17.334Z,27.06
2018-07-25T19:05:25.565Z,27.04
2018-07-25T19:08:29.689Z,26.85
2018-07-25T19:11:33.878Z,26.95
2018-07-25T19:14:43.039Z,26.95
2018-07-25T19:17:46.933Z,26.86
2018-07-25T19:20:50.567Z,26.86
2018-07-25T19:23:54.767Z,26.86
2018-07-25T19:26:58.885Z,26.75
2018-07-25T19:30:03.009Z,26.58
2018-07-25T19:33:07.043Z,26.48
2018-07-25T19:36:10.805Z,26.37
2018-07-25T19:39:14.509Z,26.27
2018-07-25T19:42:19.408Z,26.25
2018-07-25T19:45:23.389Z,26.17
2018-07-25T19:48:27.398Z,26.08
2018-07-25T19:51:31.211Z,26.10
2018-07-25T19:54:35.209Z,26.07
2018-07-25T19:57:42.407Z,26.02
2018-07-25T20:00:46.420Z,26.01
2018-07-25T20:03:50.450Z,25.92
2018-07-25T20:06:54.327Z,25.92
2018-07-25T20:09:58.302Z,25.84
2018-07-25T20:13:02.378Z,25.81
2018-07-25T20:16:06.424Z,25.77
2018-07-25T20:19:10.136Z,25.68
2018-07-25T20:22:14.828Z,25.63
2018-07-25T20:25:18.833Z,25.57
2018-07-25T20:28:22.525Z,25.50
2018-07-25T20:31:26.289Z,25.49
2018-07-25T20:34:29.933Z,25.49
2018-07-25T20:37:34.009Z,25.45
2018-07-25T20:40:37.739Z,25.35
2018-07-25T20:43:41.514Z,25.34
2018-07-25T20:46:45.193Z,25.31
2018-07-25T20:49:49.199Z,25.23
2018-07-25T20:52:53.375Z,25.18
2018-07-25T20:55:57.244Z,25.13
2018-07-25T20:59:00.947Z,24.94
2018-07-25T21:02:04.642Z,24.89
2018-07-25T21:05:08.622Z,24.74
2018-07-25T21:08:12.371Z,24.63
2018-07-25T21:11:15.998Z,24.47
2018-07-25T21:14:19.783Z,24.39
2018-07-25T21:17:23.462Z,24.27
2018-07-25T21:20:27.117Z,24.29
2018-07-25T21:23:30.862Z,24.23
2018-07-25T21:26:34.512Z,24.16
2018-07-25T21:29:38.275Z,24.02
2018-07-25T21:32:42.115Z,24.06
2018-07-25T21:35:45.731Z,23.99
2018-07-25T21:38:49.406Z,24.01
2018-07-25T21:41:53.012Z,23.96
2018-07-25T21:44:56.832Z,23.95
2018-07-25T21:48:00.480Z,23.96
2018-07-25T21:51:04.209Z,23.91
2018-07-25T21:54:07.898Z,23.89
2018-07-25T21:57:11.589Z,23.90
2018-07-25T22:00:16.442Z,23.97
2018-07-25T22:03:20.055Z,23.98
2018-07-25T22:06:23.751Z,24.03
2018-07-25T22:09:27.295Z,24.02
2018-07-25T22:12:30.950Z,24.06
2018-07-25T22:15:34.619Z,24.04
2018-07-25T22:18:38.299Z,23.99
2018-07-25T22:21:42.034Z,23.88
2018-07-25T22:24:45.824Z,23.90
2018-07-25T22:27:49.532Z,23.81
2018-07-25T22:30:53.285Z,23.79
2018-07-25T22:33:57.120Z,23.81
2018-07-25T22:37:00.753Z,23.84
2018-07-25T22:40:04.384Z,23.85
2018-07-25T22:43:08.063Z,23.85
2018-07-25T22:46:11.798Z,23.85
2018-07-25T22:49:15.475Z,23.79
2018-07-25T22:52:19.150Z,23.82
2018-07-25T22:55:22.807Z,23.75
2018-07-25T22:58:26.500Z,23.82
2018-07-25T23:01:30.139Z,23.77
2018-07-25T23:04:33.759Z,23.81
2018-07-25T23:07:37.356Z,23.81
2018-07-25T23:10:41.193Z,23.77
2018-07-25T23:13:47.194Z,23.72
2018-07-25T23:16:50.815Z,23.70
2018-07-25T23:19:54.542Z,23.65
2018-07-25T23:22:59.184Z,23.67
2018-07-25T23:26:02.873Z,23.62
2018-07-25T23:29:06.695Z,23.57
2018-07-25T23:32:10.395Z,23.65
2018-07-25T23:35:14.115Z,23.65
2018-07-25T23:38:18.570Z,23.64
2018-07-25T23:41:22.319Z,23.64
2018-07-25T23:44:25.943Z,23.57
2018-07-25T23:47:29.701Z,23.58
2018-07-25T23:50:33.389Z,23.55
2018-07-25T23:53:37.107Z,23.56
2018-07-25T23:56:40.765Z,23.57
2018-07-25T23:59:44.421Z,23.57
